sensor_id;sensor_type;location;lat;lon;timestamp;temperature;humidity
55642;DHT22;41509;53.108;6.100;2023-07-13T00:00:35;18.10;99.90
55642;DHT22;41509;53.108;6.100;2023-07-13T00:03:02;18.10;99.90
55642;DHT22;41509;53.108;6.100;2023-07-13T00:05:28;18.10;99.90
55642;DHT22;41509;53.108;6.100;2023-07-13T00:07:54;18.10;99.90
55642;DHT22;41509;53.108;6.100;2023-07-13T00:10:21;18.10;99.90
55642;DHT22;41509;53.108;6.100;2023-07-13T00:12:47;18.10;99.90
55642;DHT22;41509;53.108;6.100;2023-07-13T00:15:25;18.00;99.90
55642;DHT22;41509;53.108;6.100;2023-07-13T00:17:55;18.00;99.90
55642;DHT22;41509;53.108;6.100;2023-07-13T00:20:22;18.00;99.90
55642;DHT22;41509;53.108;6.100;2023-07-13T00:22:51;18.00;99.90
55642;DHT22;41509;53.108;6.100;2023-07-13T00:25:22;18.00;99.90
55642;DHT22;41509;53.108;6.100;2023-07-13T00:27:49;18.00;99.90
55642;DHT22;41509;53.108;6.100;2023-07-13T00:30:16;18.00;99.90
55642;DHT22;41509;53.108;6.100;2023-07-13T00:32:42;17.90;99.90
55642;DHT22;41509;53.108;6.100;2023-07-13T00:35:08;17.90;99.90
55642;DHT22;41509;53.108;6.100;2023-07-13T00:37:34;17.90;99.90
55642;DHT22;41509;53.108;6.100;2023-07-13T00:40:05;17.90;99.90
55642;DHT22;41509;53.108;6.100;2023-07-13T00:42:31;17.80;99.90
55642;DHT22;41509;53.108;6.100;2023-07-13T00:47:46;17.80;99.90
55642;DHT22;41509;53.108;6.100;2023-07-13T00:50:15;17.70;99.90
55642;DHT22;41509;53.108;6.100;2023-07-13T00:52:45;17.80;99.90
55642;DHT22;41509;53.108;6.100;2023-07-13T00:55:12;17.70;99.90
55642;DHT22;41509;53.108;6.100;2023-07-13T00:57:39;17.70;99.90
55642;DHT22;41509;53.108;6.100;2023-07-13T01:00:06;17.60;99.90
55642;DHT22;41509;53.108;6.100;2023-07-13T01:02:37;17.70;99.90
55642;DHT22;41509;53.108;6.100;2023-07-13T01:05:15;17.60;99.90
55642;DHT22;41509;53.108;6.100;2023-07-13T01:07:42;17.60;99.90
55642;DHT22;41509;53.108;6.100;2023-07-13T01:10:10;17.60;99.90
55642;DHT22;41509;53.108;6.100;2023-07-13T01:12:36;17.50;99.90
55642;DHT22;41509;53.108;6.100;2023-07-13T01:15:02;17.50;99.90
55642;DHT22;41509;53.108;6.100;2023-07-13T01:17:31;17.50;99.90
55642;DHT22;41509;53.108;6.100;2023-07-13T01:19:59;17.50;99.90
55642;DHT22;41509;53.108;6.100;2023-07-13T01:22:25;17.50;99.90
55642;DHT22;41509;53.108;6.100;2023-07-13T01:24:53;17.50;99.90
55642;DHT22;41509;53.108;6.100;2023-07-13T01:27:24;17.40;99.90
55642;DHT22;41509;53.108;6.100;2023-07-13T01:29:52;17.50;99.90
55642;DHT22;41509;53.108;6.100;2023-07-13T01:32:21;17.40;99.90
55642;DHT22;41509;53.108;6.100;2023-07-13T01:34:50;17.40;99.90
55642;DHT22;41509;53.108;6.100;2023-07-13T01:37:20;17.40;99.90
55642;DHT22;41509;53.108;6.100;2023-07-13T01:39:46;17.40;99.90
55642;DHT22;41509;53.108;6.100;2023-07-13T01:42:13;17.40;99.90
55642;DHT22;41509;53.108;6.100;2023-07-13T01:44:39;17.30;99.90
55642;DHT22;41509;53.108;6.100;2023-07-13T01:47:05;17.30;99.90
55642;DHT22;41509;53.108;6.100;2023-07-13T01:49:31;17.30;99.90
55642;DHT22;41509;53.108;6.100;2023-07-13T01:51:57;17.30;99.90
55642;DHT22;41509;53.108;6.100;2023-07-13T01:54:23;17.30;99.90
55642;DHT22;41509;53.108;6.100;2023-07-13T01:56:48;17.30;99.90
55642;DHT22;41509;53.108;6.100;2023-07-13T01:59:14;17.20;99.90
55642;DHT22;41509;53.108;6.100;2023-07-13T02:01:40;17.20;99.90
55642;DHT22;41509;53.108;6.100;2023-07-13T02:04:06;17.20;99.90
55642;DHT22;41509;53.108;6.100;2023-07-13T02:06:32;17.20;99.90
55642;DHT22;41509;53.108;6.100;2023-07-13T02:08:58;17.20;99.90
55642;DHT22;41509;53.108;6.100;2023-07-13T02:11:25;17.20;99.90
55642;DHT22;41509;53.108;6.100;2023-07-13T02:13:51;17.20;99.90
55642;DHT22;41509;53.108;6.100;2023-07-13T02:16:17;17.20;99.90
55642;DHT22;41509;53.108;6.100;2023-07-13T02:18:43;17.10;99.90
55642;DHT22;41509;53.108;6.100;2023-07-13T02:21:09;17.10;99.90
55642;DHT22;41509;53.108;6.100;2023-07-13T02:23:34;17.10;99.90
55642;DHT22;41509;53.108;6.100;2023-07-13T02:26:01;17.10;99.90
55642;DHT22;41509;53.108;6.100;2023-07-13T02:28:28;17.00;99.90
55642;DHT22;41509;53.108;6.100;2023-07-13T02:30:53;17.00;99.90
55642;DHT22;41509;53.108;6.100;2023-07-13T02:33:19;17.00;99.90
55642;DHT22;41509;53.108;6.100;2023-07-13T02:35:45;17.00;99.90
55642;DHT22;41509;53.108;6.100;2023-07-13T02:38:11;17.00;99.90
55642;DHT22;41509;53.108;6.100;2023-07-13T02:40:37;16.90;99.90
55642;DHT22;41509;53.108;6.100;2023-07-13T02:43:04;16.90;99.90
55642;DHT22;41509;53.108;6.100;2023-07-13T02:45:29;16.90;99.90
55642;DHT22;41509;53.108;6.100;2023-07-13T02:47:55;16.90;99.90
55642;DHT22;41509;53.108;6.100;2023-07-13T02:50:21;16.90;99.90
55642;DHT22;41509;53.108;6.100;2023-07-13T02:52:47;16.90;99.90
55642;DHT22;41509;53.108;6.100;2023-07-13T02:55:13;16.90;99.90
55642;DHT22;41509;53.108;6.100;2023-07-13T02:57:39;16.90;99.90
55642;DHT22;41509;53.108;6.100;2023-07-13T03:00:05;16.90;99.90
55642;DHT22;41509;53.108;6.100;2023-07-13T03:02:32;16.90;99.90
55642;DHT22;41509;53.108;6.100;2023-07-13T03:04:58;16.90;99.90
55642;DHT22;41509;53.108;6.100;2023-07-13T03:07:24;16.90;99.90
55642;DHT22;41509;53.108;6.100;2023-07-13T03:09:57;16.80;99.90
55642;DHT22;41509;53.108;6.100;2023-07-13T03:12:24;16.80;99.90
55642;DHT22;41509;53.108;6.100;2023-07-13T03:14:49;16.80;99.90
55642;DHT22;41509;53.108;6.100;2023-07-13T03:17:15;16.80;99.90
55642;DHT22;41509;53.108;6.100;2023-07-13T03:19:41;16.80;99.90
55642;DHT22;41509;53.108;6.100;2023-07-13T03:22:07;16.80;99.90
55642;DHT22;41509;53.108;6.100;2023-07-13T03:24:34;16.90;99.90
55642;DHT22;41509;53.108;6.100;2023-07-13T03:27:02;16.90;99.90
55642;DHT22;41509;53.108;6.100;2023-07-13T03:29:27;16.90;99.90
55642;DHT22;41509;53.108;6.100;2023-07-13T03:31:53;16.80;99.90
55642;DHT22;41509;53.108;6.100;2023-07-13T03:34:19;16.80;99.90
55642;DHT22;41509;53.108;6.100;2023-07-13T03:36:45;16.80;99.90
55642;DHT22;41509;53.108;6.100;2023-07-13T03:39:11;16.90;99.90
55642;DHT22;41509;53.108;6.100;2023-07-13T03:41:37;16.90;99.90
55642;DHT22;41509;53.108;6.100;2023-07-13T03:44:03;16.90;99.90
55642;DHT22;41509;53.108;6.100;2023-07-13T03:46:29;16.90;99.90
55642;DHT22;41509;53.108;6.100;2023-07-13T03:48:54;16.90;99.90
55642;DHT22;41509;53.108;6.100;2023-07-13T03:51:20;16.80;99.90
55642;DHT22;41509;53.108;6.100;2023-07-13T03:53:47;16.80;99.90
55642;DHT22;41509;53.108;6.100;2023-07-13T03:56:14;16.80;99.90
55642;DHT22;41509;53.108;6.100;2023-07-13T03:58:42;16.80;99.90
55642;DHT22;41509;53.108;6.100;2023-07-13T04:01:10;16.80;99.90
55642;DHT22;41509;53.108;6.100;2023-07-13T04:03:36;16.80;99.90
55642;DHT22;41509;53.108;6.100;2023-07-13T04:06:04;16.80;99.90
55642;DHT22;41509;53.108;6.100;2023-07-13T04:08:33;16.80;99.90
55642;DHT22;41509;53.108;6.100;2023-07-13T04:11:00;16.80;99.90
55642;DHT22;41509;53.108;6.100;2023-07-13T04:13:26;16.80;99.90
55642;DHT22;41509;53.108;6.100;2023-07-13T04:15:52;16.80;99.90
55642;DHT22;41509;53.108;6.100;2023-07-13T04:18:19;16.80;99.90
55642;DHT22;41509;53.108;6.100;2023-07-13T04:20:46;16.80;99.90
55642;DHT22;41509;53.108;6.100;2023-07-13T04:23:12;16.80;99.90
55642;DHT22;41509;53.108;6.100;2023-07-13T04:25:38;16.80;99.90
55642;DHT22;41509;53.108;6.100;2023-07-13T04:28:04;16.80;99.90
55642;DHT22;41509;53.108;6.100;2023-07-13T04:30:31;16.80;99.90
55642;DHT22;41509;53.108;6.100;2023-07-13T04:32:57;16.80;99.90
55642;DHT22;41509;53.108;6.100;2023-07-13T04:35:23;16.80;99.90
55642;DHT22;41509;53.108;6.100;2023-07-13T04:37:49;16.80;99.90
55642;DHT22;41509;53.108;6.100;2023-07-13T04:40:17;16.80;99.90
55642;DHT22;41509;53.108;6.100;2023-07-13T04:42:44;16.80;99.90
55642;DHT22;41509;53.108;6.100;2023-07-13T04:45:11;16.90;99.90
55642;DHT22;41509;53.108;6.100;2023-07-13T04:47:37;16.90;99.90
55642;DHT22;41509;53.108;6.100;2023-07-13T04:50:03;16.90;99.90
55642;DHT22;41509;53.108;6.100;2023-07-13T04:52:30;17.00;99.90
55642;DHT22;41509;53.108;6.100;2023-07-13T04:54:56;17.00;99.90
55642;DHT22;41509;53.108;6.100;2023-07-13T04:57:21;17.00;99.90
55642;DHT22;41509;53.108;6.100;2023-07-13T04:59:47;17.10;99.90
55642;DHT22;41509;53.108;6.100;2023-07-13T05:02:13;17.10;99.90
55642;DHT22;41509;53.108;6.100;2023-07-13T05:04:39;17.10;99.90
55642;DHT22;41509;53.108;6.100;2023-07-13T05:07:05;17.10;99.90
55642;DHT22;41509;53.108;6.100;2023-07-13T05:09:32;17.10;99.90
55642;DHT22;41509;53.108;6.100;2023-07-13T05:11:58;17.20;99.90
55642;DHT22;41509;53.108;6.100;2023-07-13T05:14:23;17.20;99.90
55642;DHT22;41509;53.108;6.100;2023-07-13T05:16:49;17.20;99.90
55642;DHT22;41509;53.108;6.100;2023-07-13T05:19:15;17.30;99.90
55642;DHT22;41509;53.108;6.100;2023-07-13T05:21:41;17.30;99.90
55642;DHT22;41509;53.108;6.100;2023-07-13T05:24:07;17.30;99.90
55642;DHT22;41509;53.108;6.100;2023-07-13T05:26:33;17.40;99.90
55642;DHT22;41509;53.108;6.100;2023-07-13T05:28:59;17.40;99.90
55642;DHT22;41509;53.108;6.100;2023-07-13T05:31:25;17.40;99.90
55642;DHT22;41509;53.108;6.100;2023-07-13T05:33:51;17.40;99.90
55642;DHT22;41509;53.108;6.100;2023-07-13T05:36:16;17.50;99.90
55642;DHT22;41509;53.108;6.100;2023-07-13T05:38:42;17.50;99.90
55642;DHT22;41509;53.108;6.100;2023-07-13T05:41:08;17.60;99.90
55642;DHT22;41509;53.108;6.100;2023-07-13T05:43:34;17.60;99.90
55642;DHT22;41509;53.108;6.100;2023-07-13T05:46:00;17.60;99.90
55642;DHT22;41509;53.108;6.100;2023-07-13T05:48:25;17.60;99.90
55642;DHT22;41509;53.108;6.100;2023-07-13T05:50:51;17.60;99.90
55642;DHT22;41509;53.108;6.100;2023-07-13T05:53:17;17.60;99.90
55642;DHT22;41509;53.108;6.100;2023-07-13T05:55:44;17.70;99.90
55642;DHT22;41509;53.108;6.100;2023-07-13T05:58:13;17.70;99.90
55642;DHT22;41509;53.108;6.100;2023-07-13T06:00:39;17.80;99.90
55642;DHT22;41509;53.108;6.100;2023-07-13T06:03:08;17.80;99.90
55642;DHT22;41509;53.108;6.100;2023-07-13T06:05:35;17.90;99.90
55642;DHT22;41509;53.108;6.100;2023-07-13T06:08:02;17.90;99.90
55642;DHT22;41509;53.108;6.100;2023-07-13T06:10:28;17.90;99.90
55642;DHT22;41509;53.108;6.100;2023-07-13T06:12:54;17.90;99.90
55642;DHT22;41509;53.108;6.100;2023-07-13T06:15:20;17.90;99.90
55642;DHT22;41509;53.108;6.100;2023-07-13T06:17:45;18.00;99.90
55642;DHT22;41509;53.108;6.100;2023-07-13T06:20:12;18.00;99.90
55642;DHT22;41509;53.108;6.100;2023-07-13T06:22:37;18.10;99.90
55642;DHT22;41509;53.108;6.100;2023-07-13T06:25:03;18.20;99.90
55642;DHT22;41509;53.108;6.100;2023-07-13T06:27:30;18.30;99.90
55642;DHT22;41509;53.108;6.100;2023-07-13T06:29:55;18.40;99.90
55642;DHT22;41509;53.108;6.100;2023-07-13T06:32:21;18.40;99.90
55642;DHT22;41509;53.108;6.100;2023-07-13T06:34:47;18.40;99.90
55642;DHT22;41509;53.108;6.100;2023-07-13T06:37:13;18.40;99.90
55642;DHT22;41509;53.108;6.100;2023-07-13T06:39:38;18.40;99.90
55642;DHT22;41509;53.108;6.100;2023-07-13T06:42:05;18.40;99.90
55642;DHT22;41509;53.108;6.100;2023-07-13T06:44:31;18.30;99.90
55642;DHT22;41509;53.108;6.100;2023-07-13T06:46:57;18.20;99.90
55642;DHT22;41509;53.108;6.100;2023-07-13T06:49:23;18.20;99.90
55642;DHT22;41509;53.108;6.100;2023-07-13T06:51:48;18.10;99.90
55642;DHT22;41509;53.108;6.100;2023-07-13T06:54:14;18.10;99.90
55642;DHT22;41509;53.108;6.100;2023-07-13T06:56:40;18.20;99.90
55642;DHT22;41509;53.108;6.100;2023-07-13T06:59:06;18.20;99.90
55642;DHT22;41509;53.108;6.100;2023-07-13T07:01:32;18.20;99.90
55642;DHT22;41509;53.108;6.100;2023-07-13T07:03:57;18.20;99.90
55642;DHT22;41509;53.108;6.100;2023-07-13T07:06:23;18.30;99.90
55642;DHT22;41509;53.108;6.100;2023-07-13T07:08:50;18.30;99.90
55642;DHT22;41509;53.108;6.100;2023-07-13T07:11:25;18.40;99.90
55642;DHT22;41509;53.108;6.100;2023-07-13T07:13:52;18.40;99.90
55642;DHT22;41509;53.108;6.100;2023-07-13T07:16:19;18.30;99.90
55642;DHT22;41509;53.108;6.100;2023-07-13T07:18:46;18.30;99.90
55642;DHT22;41509;53.108;6.100;2023-07-13T07:21:13;18.20;99.90
55642;DHT22;41509;53.108;6.100;2023-07-13T07:23:39;18.10;99.90
55642;DHT22;41509;53.108;6.100;2023-07-13T07:26:06;18.10;99.90
55642;DHT22;41509;53.108;6.100;2023-07-13T07:28:34;18.00;99.90
55642;DHT22;41509;53.108;6.100;2023-07-13T07:31:00;18.00;99.90
55642;DHT22;41509;53.108;6.100;2023-07-13T07:33:25;18.00;99.90
55642;DHT22;41509;53.108;6.100;2023-07-13T07:35:52;18.00;99.90
55642;DHT22;41509;53.108;6.100;2023-07-13T07:38:17;18.10;99.90
55642;DHT22;41509;53.108;6.100;2023-07-13T07:40:43;18.10;99.90
55642;DHT22;41509;53.108;6.100;2023-07-13T07:43:11;18.10;99.90
55642;DHT22;41509;53.108;6.100;2023-07-13T07:45:38;18.10;99.90
55642;DHT22;41509;53.108;6.100;2023-07-13T07:48:05;18.10;99.90
55642;DHT22;41509;53.108;6.100;2023-07-13T07:50:31;18.10;99.90
55642;DHT22;41509;53.108;6.100;2023-07-13T07:52:57;18.10;99.90
55642;DHT22;41509;53.108;6.100;2023-07-13T07:55:24;18.10;99.90
55642;DHT22;41509;53.108;6.100;2023-07-13T07:57:51;18.10;99.90
55642;DHT22;41509;53.108;6.100;2023-07-13T08:00:17;18.10;99.90
55642;DHT22;41509;53.108;6.100;2023-07-13T08:02:43;18.10;99.90
55642;DHT22;41509;53.108;6.100;2023-07-13T08:05:09;18.20;99.90
55642;DHT22;41509;53.108;6.100;2023-07-13T08:07:37;18.20;99.90
55642;DHT22;41509;53.108;6.100;2023-07-13T08:10:04;18.20;99.90
55642;DHT22;41509;53.108;6.100;2023-07-13T08:12:34;18.30;99.90
55642;DHT22;41509;53.108;6.100;2023-07-13T08:14:59;18.30;99.90
55642;DHT22;41509;53.108;6.100;2023-07-13T08:17:26;18.30;99.90
55642;DHT22;41509;53.108;6.100;2023-07-13T08:19:52;18.40;99.90
55642;DHT22;41509;53.108;6.100;2023-07-13T08:22:18;18.50;99.90
55642;DHT22;41509;53.108;6.100;2023-07-13T08:24:44;18.60;99.90
55642;DHT22;41509;53.108;6.100;2023-07-13T08:27:12;18.70;99.90
55642;DHT22;41509;53.108;6.100;2023-07-13T08:29:39;18.70;99.90
55642;DHT22;41509;53.108;6.100;2023-07-13T08:32:06;18.60;99.90
55642;DHT22;41509;53.108;6.100;2023-07-13T08:34:35;18.60;99.90
55642;DHT22;41509;53.108;6.100;2023-07-13T08:37:01;18.70;99.90
55642;DHT22;41509;53.108;6.100;2023-07-13T08:39:29;18.70;99.90
55642;DHT22;41509;53.108;6.100;2023-07-13T08:42:00;18.80;99.90
55642;DHT22;41509;53.108;6.100;2023-07-13T08:44:52;18.80;99.90
55642;DHT22;41509;53.108;6.100;2023-07-13T08:47:22;18.90;99.90
55642;DHT22;41509;53.108;6.100;2023-07-13T08:49:49;18.80;99.90
55642;DHT22;41509;53.108;6.100;2023-07-13T08:52:32;18.80;99.90
55642;DHT22;41509;53.108;6.100;2023-07-13T08:57:44;18.90;99.90
55642;DHT22;41509;53.108;6.100;2023-07-13T09:00:13;19.00;99.90
55642;DHT22;41509;53.108;6.100;2023-07-13T09:02:54;19.10;99.90
55642;DHT22;41509;53.108;6.100;2023-07-13T09:05:31;19.20;99.90
55642;DHT22;41509;53.108;6.100;2023-07-13T09:08:42;19.30;99.90
55642;DHT22;41509;53.108;6.100;2023-07-13T09:11:33;19.40;99.90
55642;DHT22;41509;53.108;6.100;2023-07-13T09:14:33;19.50;99.90
55642;DHT22;41509;53.108;6.100;2023-07-13T09:17:05;19.60;99.90
55642;DHT22;41509;53.108;6.100;2023-07-13T09:19:36;19.70;99.90
55642;DHT22;41509;53.108;6.100;2023-07-13T09:22:02;19.80;99.90
55642;DHT22;41509;53.108;6.100;2023-07-13T09:27:14;19.90;99.90
55642;DHT22;41509;53.108;6.100;2023-07-13T09:29:47;19.90;99.90
55642;DHT22;41509;53.108;6.100;2023-07-13T09:32:18;19.90;99.90
55642;DHT22;41509;53.108;6.100;2023-07-13T09:34:54;20.00;99.90
55642;DHT22;41509;53.108;6.100;2023-07-13T09:37:22;20.00;99.90
55642;DHT22;41509;53.108;6.100;2023-07-13T09:39:53;20.10;99.90
55642;DHT22;41509;53.108;6.100;2023-07-13T09:42:22;20.10;99.90
55642;DHT22;41509;53.108;6.100;2023-07-13T09:47:25;20.10;99.90
55642;DHT22;41509;53.108;6.100;2023-07-13T09:50:08;20.10;99.90
55642;DHT22;41509;53.108;6.100;2023-07-13T09:52:45;20.00;99.90
55642;DHT22;41509;53.108;6.100;2023-07-13T09:55:37;20.00;99.90
55642;DHT22;41509;53.108;6.100;2023-07-13T09:58:16;20.10;99.90
55642;DHT22;41509;53.108;6.100;2023-07-13T10:00:53;20.20;99.90
55642;DHT22;41509;53.108;6.100;2023-07-13T10:03:26;20.30;99.90
55642;DHT22;41509;53.108;6.100;2023-07-13T10:05:53;20.40;99.90
55642;DHT22;41509;53.108;6.100;2023-07-13T10:08:26;20.60;99.90
55642;DHT22;41509;53.108;6.100;2023-07-13T10:11:21;20.60;99.90
55642;DHT22;41509;53.108;6.100;2023-07-13T10:14:01;20.60;99.90
55642;DHT22;41509;53.108;6.100;2023-07-13T10:16:35;20.50;99.90
55642;DHT22;41509;53.108;6.100;2023-07-13T10:19:23;20.50;99.90
55642;DHT22;41509;53.108;6.100;2023-07-13T10:21:56;20.40;99.90
55642;DHT22;41509;53.108;6.100;2023-07-13T10:24:25;20.50;99.90
55642;DHT22;41509;53.108;6.100;2023-07-13T10:27:20;20.60;99.90
55642;DHT22;41509;53.108;6.100;2023-07-13T10:30:11;20.70;99.90
55642;DHT22;41509;53.108;6.100;2023-07-13T10:32:38;20.90;99.90
55642;DHT22;41509;53.108;6.100;2023-07-13T10:35:04;21.10;99.90
55642;DHT22;41509;53.108;6.100;2023-07-13T10:37:44;21.10;99.90
55642;DHT22;41509;53.108;6.100;2023-07-13T10:40:18;21.00;99.90
55642;DHT22;41509;53.108;6.100;2023-07-13T10:42:47;21.00;99.90
55642;DHT22;41509;53.108;6.100;2023-07-13T10:45:20;21.00;99.90
55642;DHT22;41509;53.108;6.100;2023-07-13T10:47:47;21.10;99.90
55642;DHT22;41509;53.108;6.100;2023-07-13T10:50:25;21.20;99.90
55642;DHT22;41509;53.108;6.100;2023-07-13T10:52:53;21.30;99.90
55642;DHT22;41509;53.108;6.100;2023-07-13T10:55:40;21.40;99.90
55642;DHT22;41509;53.108;6.100;2023-07-13T10:58:32;21.50;99.90
55642;DHT22;41509;53.108;6.100;2023-07-13T11:01:11;21.60;99.90
55642;DHT22;41509;53.108;6.100;2023-07-13T11:03:38;21.70;99.90
55642;DHT22;41509;53.108;6.100;2023-07-13T11:06:16;21.70;99.90
55642;DHT22;41509;53.108;6.100;2023-07-13T11:18:45;21.40;99.90
55642;DHT22;41509;53.108;6.100;2023-07-13T11:21:25;21.40;99.90
55642;DHT22;41509;53.108;6.100;2023-07-13T11:24:02;21.50;99.90
55642;DHT22;41509;53.108;6.100;2023-07-13T11:26:51;21.70;99.90
55642;DHT22;41509;53.108;6.100;2023-07-13T11:31:53;22.00;99.90
55642;DHT22;41509;53.108;6.100;2023-07-13T11:34:30;22.00;99.90
55642;DHT22;41509;53.108;6.100;2023-07-13T11:36:57;22.00;99.90
55642;DHT22;41509;53.108;6.100;2023-07-13T11:39:51;22.00;99.90
55642;DHT22;41509;53.108;6.100;2023-07-13T11:42:18;22.10;99.90
55642;DHT22;41509;53.108;6.100;2023-07-13T11:44:48;22.10;99.90
55642;DHT22;41509;53.108;6.100;2023-07-13T11:47:19;22.10;99.90
55642;DHT22;41509;53.108;6.100;2023-07-13T11:49:52;22.20;99.90
55642;DHT22;41509;53.108;6.100;2023-07-13T11:52:21;22.10;99.90
55642;DHT22;41509;53.108;6.100;2023-07-13T11:54:57;22.00;99.90
55642;DHT22;41509;53.108;6.100;2023-07-13T11:57:29;21.90;99.90
55642;DHT22;41509;53.108;6.100;2023-07-13T12:00:25;21.90;99.90
55642;DHT22;41509;53.108;6.100;2023-07-13T12:02:54;22.00;99.60
55642;DHT22;41509;53.108;6.100;2023-07-13T12:05:20;22.10;99.90
55642;DHT22;41509;53.108;6.100;2023-07-13T12:07:46;22.20;99.90
55642;DHT22;41509;53.108;6.100;2023-07-13T12:12:56;22.30;99.90
55642;DHT22;41509;53.108;6.100;2023-07-13T12:15:28;22.40;99.90
55642;DHT22;41509;53.108;6.100;2023-07-13T12:17:56;22.40;99.90
55642;DHT22;41509;53.108;6.100;2023-07-13T12:20:35;22.60;99.90
55642;DHT22;41509;53.108;6.100;2023-07-13T12:23:05;22.60;99.90
55642;DHT22;41509;53.108;6.100;2023-07-13T12:25:31;22.60;99.90
55642;DHT22;41509;53.108;6.100;2023-07-13T12:27:57;22.60;99.50
55642;DHT22;41509;53.108;6.100;2023-07-13T12:30:29;22.50;96.70
55642;DHT22;41509;53.108;6.100;2023-07-13T12:32:59;22.50;99.10
55642;DHT22;41509;53.108;6.100;2023-07-13T12:35:28;22.50;99.00
55642;DHT22;41509;53.108;6.100;2023-07-13T12:37:57;22.40;98.70
55642;DHT22;41509;53.108;6.100;2023-07-13T12:40:33;22.30;98.50
55642;DHT22;41509;53.108;6.100;2023-07-13T12:43:01;22.20;98.30
55642;DHT22;41509;53.108;6.100;2023-07-13T12:45:30;22.20;98.90
55642;DHT22;41509;53.108;6.100;2023-07-13T12:48:19;22.30;99.20
55642;DHT22;41509;53.108;6.100;2023-07-13T12:50:47;22.30;99.20
55642;DHT22;41509;53.108;6.100;2023-07-13T12:53:19;22.30;99.20
55642;DHT22;41509;53.108;6.100;2023-07-13T12:55:50;22.30;98.80
55642;DHT22;41509;53.108;6.100;2023-07-13T12:58:25;22.40;99.50
55642;DHT22;41509;53.108;6.100;2023-07-13T13:00:54;22.50;98.70
55642;DHT22;41509;53.108;6.100;2023-07-13T13:03:55;22.50;99.10
55642;DHT22;41509;53.108;6.100;2023-07-13T13:06:30;22.60;99.20
55642;DHT22;41509;53.108;6.100;2023-07-13T13:08:58;22.60;97.70
55642;DHT22;41509;53.108;6.100;2023-07-13T13:11:25;22.60;98.20
55642;DHT22;41509;53.108;6.100;2023-07-13T13:13:52;22.60;98.20
55642;DHT22;41509;53.108;6.100;2023-07-13T13:16:33;22.60;98.40
55642;DHT22;41509;53.108;6.100;2023-07-13T13:21:43;22.70;97.50
55642;DHT22;41509;53.108;6.100;2023-07-13T13:24:15;22.60;96.70
55642;DHT22;41509;53.108;6.100;2023-07-13T13:26:42;22.50;97.00
55642;DHT22;41509;53.108;6.100;2023-07-13T13:29:14;22.50;97.10
55642;DHT22;41509;53.108;6.100;2023-07-13T13:31:41;22.60;97.20
55642;DHT22;41509;53.108;6.100;2023-07-13T13:34:11;22.60;97.30
55642;DHT22;41509;53.108;6.100;2023-07-13T13:36:37;22.70;97.20
55642;DHT22;41509;53.108;6.100;2023-07-13T13:39:28;22.80;97.60
55642;DHT22;41509;53.108;6.100;2023-07-13T13:41:53;23.00;97.60
55642;DHT22;41509;53.108;6.100;2023-07-13T13:44:20;23.10;97.00
55642;DHT22;41509;53.108;6.100;2023-07-13T13:46:48;23.10;96.40
55642;DHT22;41509;53.108;6.100;2023-07-13T13:49:19;23.00;95.70
55642;DHT22;41509;53.108;6.100;2023-07-13T13:51:46;22.90;95.50
55642;DHT22;41509;53.108;6.100;2023-07-13T13:54:13;22.80;96.00
55642;DHT22;41509;53.108;6.100;2023-07-13T13:56:44;22.70;96.70
55642;DHT22;41509;53.108;6.100;2023-07-13T13:59:11;22.80;97.20
55642;DHT22;41509;53.108;6.100;2023-07-13T14:01:37;22.90;97.30
55642;DHT22;41509;53.108;6.100;2023-07-13T14:04:04;22.90;97.30
55642;DHT22;41509;53.108;6.100;2023-07-13T14:06:31;22.90;96.90
55642;DHT22;41509;53.108;6.100;2023-07-13T14:08:57;22.90;96.20
55642;DHT22;41509;53.108;6.100;2023-07-13T14:11:23;23.00;96.60
55642;DHT22;41509;53.108;6.100;2023-07-13T14:13:59;23.10;96.50
55642;DHT22;41509;53.108;6.100;2023-07-13T14:16:29;23.20;96.30
55642;DHT22;41509;53.108;6.100;2023-07-13T14:18:55;23.20;96.90
55642;DHT22;41509;53.108;6.100;2023-07-13T14:21:24;23.40;96.60
55642;DHT22;41509;53.108;6.100;2023-07-13T14:23:50;23.40;95.80
55642;DHT22;41509;53.108;6.100;2023-07-13T14:26:26;23.30;94.50
55642;DHT22;41509;53.108;6.100;2023-07-13T14:28:55;23.10;95.20
55642;DHT22;41509;53.108;6.100;2023-07-13T14:31:22;22.80;96.00
55642;DHT22;41509;53.108;6.100;2023-07-13T14:33:48;22.60;96.70
55642;DHT22;41509;53.108;6.100;2023-07-13T14:38:59;22.40;96.00
55642;DHT22;41509;53.108;6.100;2023-07-13T14:41:25;22.40;96.80
55642;DHT22;41509;53.108;6.100;2023-07-13T14:43:51;22.50;96.40
55642;DHT22;41509;53.108;6.100;2023-07-13T14:46:37;22.40;96.50
55642;DHT22;41509;53.108;6.100;2023-07-13T14:49:15;22.30;95.50
55642;DHT22;41509;53.108;6.100;2023-07-13T14:51:42;22.30;96.20
55642;DHT22;41509;53.108;6.100;2023-07-13T14:54:08;22.40;96.10
55642;DHT22;41509;53.108;6.100;2023-07-13T14:56:34;22.50;95.80
55642;DHT22;41509;53.108;6.100;2023-07-13T14:59:00;22.70;96.70
55642;DHT22;41509;53.108;6.100;2023-07-13T15:01:26;22.80;96.30
55642;DHT22;41509;53.108;6.100;2023-07-13T15:03:52;22.80;96.50
55642;DHT22;41509;53.108;6.100;2023-07-13T15:06:18;22.80;96.50
55642;DHT22;41509;53.108;6.100;2023-07-13T15:08:45;22.80;96.40
55642;DHT22;41509;53.108;6.100;2023-07-13T15:11:13;23.00;97.00
55642;DHT22;41509;53.108;6.100;2023-07-13T15:13:40;23.20;97.10
55642;DHT22;41509;53.108;6.100;2023-07-13T15:16:25;23.40;96.90
55642;DHT22;41509;53.108;6.100;2023-07-13T15:18:51;23.50;95.90
55642;DHT22;41509;53.108;6.100;2023-07-13T15:21:23;23.60;96.30
55642;DHT22;41509;53.108;6.100;2023-07-13T15:23:50;23.70;96.10
55642;DHT22;41509;53.108;6.100;2023-07-13T15:26:18;23.80;95.60
55642;DHT22;41509;53.108;6.100;2023-07-13T15:28:45;23.80;95.60
55642;DHT22;41509;53.108;6.100;2023-07-13T15:31:31;23.80;94.90
55642;DHT22;41509;53.108;6.100;2023-07-13T15:33:59;23.90;93.80
55642;DHT22;41509;53.108;6.100;2023-07-13T15:36:25;23.90;94.40
55642;DHT22;41509;53.108;6.100;2023-07-13T15:38:53;23.90;94.50
55642;DHT22;41509;53.108;6.100;2023-07-13T15:41:24;24.00;94.20
55642;DHT22;41509;53.108;6.100;2023-07-13T15:43:53;24.10;93.40
55642;DHT22;41509;53.108;6.100;2023-07-13T15:46:20;24.10;92.60
55642;DHT22;41509;53.108;6.100;2023-07-13T15:48:50;24.30;93.20
55642;DHT22;41509;53.108;6.100;2023-07-13T15:51:24;24.40;93.00
55642;DHT22;41509;53.108;6.100;2023-07-13T15:53:54;24.40;92.30
55642;DHT22;41509;53.108;6.100;2023-07-13T15:56:26;24.50;92.10
55642;DHT22;41509;53.108;6.100;2023-07-13T15:58:53;24.60;90.80
55642;DHT22;41509;53.108;6.100;2023-07-13T16:01:19;24.70;90.70
55642;DHT22;41509;53.108;6.100;2023-07-13T16:03:46;24.70;90.70
55642;DHT22;41509;53.108;6.100;2023-07-13T16:08:44;24.70;91.00
55642;DHT22;41509;53.108;6.100;2023-07-13T16:11:22;24.60;90.30
55642;DHT22;41509;53.108;6.100;2023-07-13T16:13:48;24.70;90.60
55642;DHT22;41509;53.108;6.100;2023-07-13T16:16:22;24.50;90.20